Página principal
METAR-TAF:

METAR-TAF

Aeroportos :

Aeroporto Internacional de El Salvador

El Salvador, El Salvador

latitude: 13-26N, longitude: 089-03W, altura: 25 m

Observação actual do tempo

O boletim foi feito há 40 minutos, às 08:50 UTC
Vento 5 kt de nor-nordeste
Temperatura 22°C
Humidade 65%
Pressão 1014 hPa
Visibilidade 10 km ou mais
sem nuvens abaixo de 1500 metros e sem cumulonimbus

METAR: MSLP 120850Z 03005KT CAVOK 22/15 Q1013 A2993 NOSIG

Hora: 03:30 (09:30 UTC)

Previsão

O boletim foi feito há 6 horas e 5 minutos, às 03:25 UTC
Previsão válida de 12 às 06 UTC a 13 às 06 UTC
Vento 15 kt de nor-nordeste com rajadas de 35 kt
Visibilidade 10 km ou mais
Poucas nuvensa uma altura de 7000 ft

TAF: MSLP 120325Z 1206/1306 03015G35KT 9999 FEW070 TX34/1218Z TN20/1212Z

Observações e previsões do tempo de mais de 4000 aeroportos (mensagens METAR e TAF).

As estações disponíveis são os pontos amarelos e vermelhos sobre o mapa.

Mova o rato sobre o mapa para ver o nome da estação.

Depois clique no ponto para visualizar as observações e previsões meteorológicas.

Para alterar o mapa : clique nos botões verdes com uma cruz preta para aumentar o zoom; no botão verde com uma pitada de zoom; ou nas setas verdes para mapas adjacentes.


METAR-TAF: